Milburn, Oklahoma
Current Conditions -  °F | °C
As of 10:35 PM on Saturday 22 Nov 2014 (Local Time) from KDUA Reporting Station
Broken Clouds Broken Clouds  
Wind Chill: 59°   Ceiling: 200
Heat Index: 59°   Visibility: 7mi
Dew Point: 59°   Wind: 10mph
Humidity: 100%   Direction: 170°S
Pressure: 29.73"   Gusts: NA
Location:  34.24°N, 96.55°W
Report Text: KDUA 230435Z AUTO 17009KT 7SM BKN002 BKN010 15/15 A2973 RMK AO2
Loading
Personal Weather Stations






























Interactive Weather Map New forecast layout! Learn more

10-Day Weather Forecast

Advertisements
Track Severe Weather on mobile